createdAt,value
2023-03-11T00:00:01.394Z,957.36
2023-03-11T00:05:01.396Z,957.55
2023-03-11T00:10:01.309Z,957.21
2023-03-11T00:15:01.218Z,957.66
2023-03-11T00:20:01.143Z,957.70
2023-03-11T00:25:01.113Z,957.91
2023-03-11T00:30:01.109Z,958.07
2023-03-11T00:35:00.991Z,958.16
2023-03-11T00:40:00.931Z,958.14
2023-03-11T00:45:01.230Z,958.33
2023-03-11T00:50:00.777Z,958.46
2023-03-11T00:55:00.732Z,958.56
2023-03-11T01:00:01.021Z,958.62
2023-03-11T01:05:00.591Z,958.58
2023-03-11T01:10:00.544Z,958.66
2023-03-11T01:15:00.495Z,958.61
2023-03-11T01:20:00.439Z,958.73
2023-03-11T01:25:00.397Z,958.79
2023-03-11T01:30:00.306Z,958.81
2023-03-11T01:35:00.240Z,958.86
2023-03-11T01:40:00.176Z,958.91
2023-03-11T01:45:00.194Z,958.94
2023-03-11T01:50:00.084Z,959.01
2023-03-11T01:54:59.999Z,959.03
2023-03-11T01:59:59.923Z,959.02
2023-03-11T02:04:59.852Z,959.06
2023-03-11T02:09:59.834Z,959.11
2023-03-11T02:14:59.757Z,959.14
2023-03-11T02:19:59.704Z,959.26
2023-03-11T02:24:59.651Z,959.28
2023-03-11T02:29:59.626Z,959.42
2023-03-11T02:34:59.498Z,959.56
2023-03-11T02:39:59.493Z,959.53
2023-03-11T02:44:59.411Z,959.58
2023-03-11T02:49:59.339Z,959.56
2023-03-11T02:54:59.302Z,959.64
2023-03-11T02:59:59.200Z,959.70
2023-03-11T03:04:59.148Z,959.78
2023-03-11T03:09:59.075Z,959.81
2023-03-11T03:14:59.056Z,959.92
2023-03-11T03:19:58.966Z,959.97
2023-03-11T03:24:58.884Z,960.10
2023-03-11T03:29:58.814Z,960.19
2023-03-11T03:34:58.795Z,960.29
2023-03-11T03:39:58.712Z,960.29
2023-03-11T03:44:58.647Z,960.26
2023-03-11T03:49:59.505Z,960.46
2023-03-11T03:54:58.545Z,960.54
2023-03-11T03:59:58.808Z,960.58
2023-03-11T04:04:58.402Z,960.62
2023-03-11T04:09:58.379Z,960.63
2023-03-11T04:14:58.268Z,960.72
2023-03-11T04:19:58.198Z,960.71
2023-03-11T04:24:58.172Z,960.79
2023-03-11T04:29:58.125Z,960.95
2023-03-11T04:34:58.037Z,960.91
2023-03-11T04:39:57.962Z,961.02
2023-03-11T04:44:57.937Z,961.01
2023-03-11T04:49:57.881Z,961.10
2023-03-11T04:54:57.807Z,961.09
2023-03-11T04:59:57.754Z,961.14
2023-03-11T05:04:57.730Z,961.20
2023-03-11T05:09:57.607Z,961.36
2023-03-11T05:14:57.541Z,961.42
2023-03-11T05:19:57.476Z,961.50
2023-03-11T05:24:57.421Z,961.50
2023-03-11T05:29:57.361Z,961.59
2023-03-11T05:34:57.306Z,961.60
2023-03-11T05:39:57.308Z,961.73
2023-03-11T05:44:57.211Z,961.78
2023-03-11T05:49:57.124Z,962.03
2023-03-11T05:54:57.113Z,962.01
2023-03-11T05:59:56.981Z,962.08
2023-03-11T06:04:57.064Z,962.11
2023-03-11T06:09:56.888Z,962.17
2023-03-11T06:14:56.806Z,962.24
2023-03-11T06:19:56.732Z,962.19
2023-03-11T06:24:56.699Z,962.27
2023-03-11T06:29:56.609Z,962.42
2023-03-11T06:34:56.546Z,962.50
2023-03-11T06:39:56.541Z,962.57
2023-03-11T06:44:56.435Z,962.62
2023-03-11T06:49:56.394Z,962.75
2023-03-11T06:54:56.313Z,962.84
2023-03-11T06:59:56.241Z,962.97
2023-03-11T07:04:56.189Z,963.01
2023-03-11T07:09:56.137Z,963.04
2023-03-11T07:14:56.098Z,963.04
2023-03-11T07:19:56.007Z,963.16
2023-03-11T07:24:55.922Z,963.14
2023-03-11T07:29:55.840Z,963.21
2023-03-11T07:34:55.820Z,963.37
2023-03-11T07:39:55.717Z,963.40
2023-03-11T07:44:55.690Z,963.56
2023-03-11T07:49:57.266Z,964.11
2023-03-11T07:54:55.528Z,964.05
2023-03-11T07:59:55.567Z,964.06
2023-03-11T08:04:55.480Z,964.05
2023-03-11T08:09:55.337Z,964.08
2023-03-11T08:14:55.317Z,964.16
2023-03-11T08:19:55.227Z,964.29
2023-03-11T08:24:55.192Z,964.40
2023-03-11T08:29:55.103Z,964.47
2023-03-11T08:34:55.094Z,964.52
2023-03-11T08:39:55.040Z,964.56
2023-03-11T08:44:54.996Z,964.60
2023-03-11T08:49:54.889Z,964.75
2023-03-11T08:54:54.813Z,964.89
2023-03-11T08:59:54.757Z,964.96
2023-03-11T09:04:54.724Z,965.03
2023-03-11T09:09:54.618Z,965.13
2023-03-11T09:14:54.560Z,965.15
2023-03-11T09:19:54.547Z,965.17
2023-03-11T09:24:54.435Z,965.19
2023-03-11T09:29:54.388Z,965.23
2023-03-11T09:34:54.477Z,965.34
2023-03-11T09:39:54.247Z,965.33
2023-03-11T09:44:54.204Z,965.38
2023-03-11T09:49:54.143Z,965.41
2023-03-11T09:54:54.084Z,965.44
2023-03-11T09:59:54.022Z,965.40
2023-03-11T10:04:53.985Z,965.47
2023-03-11T10:09:54.221Z,965.59
2023-03-11T10:14:53.842Z,965.57
2023-03-11T10:19:53.780Z,965.51
2023-03-11T10:24:53.697Z,965.55
2023-03-11T10:29:53.636Z,965.62
2023-03-11T10:34:53.585Z,965.63
2023-03-11T10:39:53.534Z,965.66
2023-03-11T10:44:53.427Z,965.76
2023-03-11T10:49:53.380Z,965.81
2023-03-11T10:54:53.370Z,965.84
2023-03-11T10:59:53.257Z,965.83
2023-03-11T11:04:53.204Z,965.76
2023-03-11T11:09:53.201Z,965.76
2023-03-11T11:14:53.077Z,965.84
2023-03-11T11:19:53.019Z,965.81
2023-03-11T11:24:53.060Z,965.84
2023-03-11T11:29:52.902Z,965.93
2023-03-11T11:34:52.854Z,965.86
2023-03-11T11:39:52.808Z,965.85
2023-03-11T11:44:52.755Z,965.79
2023-03-11T11:49:52.711Z,965.72
2023-03-11T11:54:52.692Z,965.68
2023-03-11T11:59:52.557Z,965.85
2023-03-11T12:04:52.472Z,965.75
2023-03-11T12:09:52.415Z,965.79
2023-03-11T12:14:52.353Z,965.82
2023-03-11T12:19:52.256Z,965.92
2023-03-11T12:24:52.241Z,965.91
2023-03-11T12:29:52.176Z,965.89
2023-03-11T12:34:52.129Z,965.91
2023-03-11T12:39:52.086Z,965.87
2023-03-11T12:44:52.043Z,965.91
2023-03-11T12:49:51.936Z,965.85
2023-03-11T12:54:51.853Z,965.84
2023-03-11T12:59:51.791Z,965.85
2023-03-11T13:04:51.758Z,965.87
2023-03-11T13:09:51.669Z,965.86
2023-03-11T13:14:51.626Z,965.92
2023-03-11T13:19:51.571Z,965.97
2023-03-11T13:24:51.522Z,965.97
2023-03-11T13:29:51.434Z,965.92
2023-03-11T13:34:51.378Z,965.94
2023-03-11T13:39:51.334Z,965.97
2023-03-11T13:44:51.299Z,966.04
2023-03-11T13:49:51.234Z,966.12
2023-03-11T13:54:51.127Z,966.23
2023-03-11T13:59:51.095Z,966.26
2023-03-11T14:04:51.033Z,966.39
2023-03-11T14:09:50.977Z,966.32
2023-03-11T14:14:50.902Z,966.37
2023-03-11T14:19:50.852Z,966.41
2023-03-11T14:24:50.805Z,966.51
2023-03-11T14:29:51.061Z,966.63
2023-03-11T14:34:50.668Z,966.64
2023-03-11T14:39:53.898Z,966.69
2023-03-11T14:44:50.601Z,966.73
2023-03-11T14:49:50.496Z,966.76
2023-03-11T14:54:50.454Z,966.76
2023-03-11T14:59:50.430Z,966.82
2023-03-11T15:04:50.301Z,966.88
2023-03-11T15:09:51.205Z,966.89
2023-03-11T15:14:50.253Z,966.91
2023-03-11T15:19:50.187Z,966.93
2023-03-11T15:24:50.085Z,966.93
2023-03-11T15:29:50.032Z,967.04
2023-03-11T15:34:50.241Z,967.11
2023-03-11T15:39:50.024Z,967.04
2023-03-11T15:44:49.889Z,967.15
2023-03-11T15:49:49.773Z,967.21
2023-03-11T15:54:55.713Z,967.33
2023-03-11T15:59:50.633Z,967.39
2023-03-11T16:04:49.718Z,967.41
2023-03-11T16:09:49.505Z,967.44
2023-03-11T16:14:49.470Z,967.49
2023-03-11T16:19:49.779Z,967.45
2023-03-11T16:24:49.339Z,967.65
2023-03-11T16:29:49.346Z,967.65
2023-03-11T16:34:49.246Z,967.68
2023-03-11T16:39:49.151Z,967.76
2023-03-11T16:44:49.066Z,967.94
2023-03-11T16:49:49.050Z,967.93
2023-03-11T16:54:48.977Z,967.97
2023-03-11T16:59:48.950Z,968.09
2023-03-11T17:04:48.962Z,968.05
2023-03-11T17:09:48.794Z,968.17
2023-03-11T17:14:48.754Z,968.30
2023-03-11T17:19:48.656Z,968.35
2023-03-11T17:24:48.592Z,968.48
2023-03-11T17:29:48.556Z,968.44
2023-03-11T17:34:48.492Z,968.49
2023-03-11T17:39:48.415Z,968.50
2023-03-11T17:44:51.812Z,968.61
2023-03-11T17:49:48.338Z,968.61
2023-03-11T17:54:48.257Z,968.58
2023-03-11T17:59:48.155Z,968.56
2023-03-11T18:04:48.125Z,968.61
2023-03-11T18:09:48.001Z,968.71
2023-03-11T18:14:47.991Z,968.85
2023-03-11T18:19:47.960Z,968.85
2023-03-11T18:24:47.832Z,968.96
2023-03-11T18:29:47.765Z,969.08
2023-03-11T18:34:47.744Z,969.13
2023-03-11T18:39:47.688Z,969.14
2023-03-11T18:44:47.610Z,969.14
2023-03-11T18:49:47.514Z,969.16
2023-03-11T18:54:47.527Z,969.24
2023-03-11T18:59:47.406Z,969.31
2023-03-11T19:04:47.447Z,969.34
2023-03-11T19:09:47.285Z,969.39
2023-03-11T19:14:47.295Z,969.36
2023-03-11T19:19:47.185Z,969.32
2023-03-11T19:24:47.137Z,969.45
2023-03-11T19:29:47.044Z,969.44
2023-03-11T19:34:47.001Z,969.48
2023-03-11T19:39:46.936Z,969.50
2023-03-11T19:44:46.860Z,969.52
2023-03-11T19:49:46.830Z,969.50
2023-03-11T19:54:46.776Z,969.50
2023-03-11T19:59:46.677Z,969.49
2023-03-11T20:04:46.729Z,969.51
2023-03-11T20:09:46.639Z,969.59
2023-03-11T20:14:46.500Z,969.62
2023-03-11T20:19:46.482Z,969.60
2023-03-11T20:24:46.444Z,969.64
2023-03-11T20:29:46.384Z,969.69
2023-03-11T20:34:46.272Z,969.72
2023-03-11T20:39:46.215Z,969.70
2023-03-11T20:44:46.142Z,969.73
2023-03-11T20:49:46.112Z,969.74
2023-03-11T20:54:46.179Z,969.75
2023-03-11T20:59:45.948Z,969.86
2023-03-11T21:04:45.958Z,969.89
2023-03-11T21:09:45.923Z,969.89
2023-03-11T21:14:46.055Z,969.88
2023-03-11T21:19:45.799Z,969.85
2023-03-11T21:24:45.719Z,969.87
2023-03-11T21:29:45.924Z,969.83
2023-03-11T21:34:45.586Z,969.85
2023-03-11T21:39:45.584Z,969.95
2023-03-11T21:44:45.464Z,970.00
2023-03-11T21:49:45.351Z,970.01
2023-03-11T21:54:45.400Z,969.99
2023-03-11T21:59:45.249Z,970.05
2023-03-11T22:04:45.248Z,969.98
2023-03-11T22:09:45.187Z,970.05
2023-03-11T22:14:45.046Z,970.18
2023-03-11T22:19:45.023Z,970.20
2023-03-11T22:24:44.885Z,970.17
2023-03-11T22:29:44.846Z,970.18
2023-03-11T22:34:44.759Z,970.18
2023-03-11T22:39:44.729Z,970.15
2023-03-11T22:44:44.674Z,970.11
2023-03-11T22:49:44.622Z,970.21
2023-03-11T22:54:44.604Z,970.29
2023-03-11T22:59:44.499Z,970.33
2023-03-11T23:04:44.413Z,970.31
2023-03-11T23:09:44.336Z,970.33
2023-03-11T23:14:45.317Z,970.38
2023-03-11T23:19:44.262Z,970.50
2023-03-11T23:24:44.170Z,970.53
2023-03-11T23:29:44.119Z,970.52
2023-03-11T23:34:44.033Z,970.48
2023-03-11T23:39:44.010Z,970.48
2023-03-11T23:44:43.897Z,970.58
2023-03-11T23:49:43.860Z,970.69
2023-03-11T23:54:43.823Z,970.73
2023-03-11T23:59:43.763Z,970.76
